sensor_id;sensor_type;location;lat;lon;timestamp;P1;durP1;ratioP1;P2;durP2;ratioP2
47413;SDS011;33163;0.000;0.000;2023-07-09T00:00:38;11.60;;;7.43;;
47413;SDS011;33163;0.000;0.000;2023-07-09T00:03:05;15.50;;;7.63;;
47413;SDS011;33163;0.000;0.000;2023-07-09T00:05:32;13.75;;;7.30;;
47413;SDS011;33163;0.000;0.000;2023-07-09T00:07:59;11.15;;;7.70;;
47413;SDS011;33163;0.000;0.000;2023-07-09T00:10:26;11.23;;;6.97;;
47413;SDS011;33163;0.000;0.000;2023-07-09T00:12:53;9.90;;;6.90;;
47413;SDS011;33163;0.000;0.000;2023-07-09T00:15:20;10.27;;;6.72;;
47413;SDS011;33163;0.000;0.000;2023-07-09T00:17:48;10.93;;;7.50;;
47413;SDS011;33163;0.000;0.000;2023-07-09T00:20:16;12.75;;;7.22;;
47413;SDS011;33163;0.000;0.000;2023-07-09T00:22:44;13.13;;;7.50;;
47413;SDS011;33163;0.000;0.000;2023-07-09T00:25:13;11.65;;;7.03;;
47413;SDS011;33163;0.000;0.000;2023-07-09T00:27:41;12.00;;;7.68;;
47413;SDS011;33163;0.000;0.000;2023-07-09T00:30:14;11.20;;;7.30;;
47413;SDS011;33163;0.000;0.000;2023-07-09T00:32:42;11.30;;;7.70;;
47413;SDS011;33163;0.000;0.000;2023-07-09T00:35:11;9.80;;;7.22;;
47413;SDS011;33163;0.000;0.000;2023-07-09T00:37:40;10.80;;;6.82;;
47413;SDS011;33163;0.000;0.000;2023-07-09T00:40:10;12.00;;;7.63;;
47413;SDS011;33163;0.000;0.000;2023-07-09T00:42:43;12.10;;;7.03;;
47413;SDS011;33163;0.000;0.000;2023-07-09T00:45:16;11.75;;;7.43;;
47413;SDS011;33163;0.000;0.000;2023-07-09T00:47:47;11.93;;;7.38;;
47413;SDS011;33163;0.000;0.000;2023-07-09T00:50:21;13.32;;;7.45;;
47413;SDS011;33163;0.000;0.000;2023-07-09T00:53:01;9.95;;;6.82;;
47413;SDS011;33163;0.000;0.000;2023-07-09T00:55:32;10.23;;;6.95;;
47413;SDS011;33163;0.000;0.000;2023-07-09T00:58:05;10.88;;;7.57;;
47413;SDS011;33163;0.000;0.000;2023-07-09T01:00:37;10.45;;;7.47;;
47413;SDS011;33163;0.000;0.000;2023-07-09T01:03:11;10.77;;;7.25;;
47413;SDS011;33163;0.000;0.000;2023-07-09T01:05:45;10.32;;;7.20;;
47413;SDS011;33163;0.000;0.000;2023-07-09T01:08:16;12.27;;;7.20;;
47413;SDS011;33163;0.000;0.000;2023-07-09T01:10:44;10.95;;;7.10;;
47413;SDS011;33163;0.000;0.000;2023-07-09T01:13:10;9.18;;;6.75;;
47413;SDS011;33163;0.000;0.000;2023-07-09T01:15:37;10.93;;;8.00;;
47413;SDS011;33163;0.000;0.000;2023-07-09T01:18:05;11.40;;;7.03;;
47413;SDS011;33163;0.000;0.000;2023-07-09T01:20:33;9.07;;;6.65;;
47413;SDS011;33163;0.000;0.000;2023-07-09T01:23:01;11.05;;;6.75;;
47413;SDS011;33163;0.000;0.000;2023-07-09T01:25:31;10.25;;;7.18;;
47413;SDS011;33163;0.000;0.000;2023-07-09T01:27:58;11.15;;;6.78;;
47413;SDS011;33163;0.000;0.000;2023-07-09T01:30:27;10.63;;;7.32;;
47413;SDS011;33163;0.000;0.000;2023-07-09T01:32:57;10.40;;;6.60;;
47413;SDS011;33163;0.000;0.000;2023-07-09T01:35:26;9.93;;;6.65;;
47413;SDS011;33163;0.000;0.000;2023-07-09T01:37:54;9.55;;;7.18;;
47413;SDS011;33163;0.000;0.000;2023-07-09T01:40:23;10.60;;;7.22;;
47413;SDS011;33163;0.000;0.000;2023-07-09T01:42:52;9.63;;;6.97;;
47413;SDS011;33163;0.000;0.000;2023-07-09T01:45:20;10.73;;;7.00;;
47413;SDS011;33163;0.000;0.000;2023-07-09T01:47:48;12.07;;;6.97;;
47413;SDS011;33163;0.000;0.000;2023-07-09T01:50:15;10.63;;;7.07;;
47413;SDS011;33163;0.000;0.000;2023-07-09T01:52:43;11.77;;;6.75;;
47413;SDS011;33163;0.000;0.000;2023-07-09T01:55:11;12.60;;;8.00;;
47413;SDS011;33163;0.000;0.000;2023-07-09T01:57:43;10.07;;;6.65;;
47413;SDS011;33163;0.000;0.000;2023-07-09T02:00:11;11.43;;;6.97;;
47413;SDS011;33163;0.000;0.000;2023-07-09T02:02:39;10.93;;;6.97;;
47413;SDS011;33163;0.000;0.000;2023-07-09T02:05:16;10.70;;;7.10;;
47413;SDS011;33163;0.000;0.000;2023-07-09T02:07:59;10.77;;;6.95;;
47413;SDS011;33163;0.000;0.000;2023-07-09T02:10:26;8.57;;;6.25;;
47413;SDS011;33163;0.000;0.000;2023-07-09T02:12:54;9.35;;;7.20;;
47413;SDS011;33163;0.000;0.000;2023-07-09T02:15:21;10.45;;;7.03;;
47413;SDS011;33163;0.000;0.000;2023-07-09T02:17:48;10.50;;;6.90;;
47413;SDS011;33163;0.000;0.000;2023-07-09T02:20:14;11.88;;;6.70;;
47413;SDS011;33163;0.000;0.000;2023-07-09T02:22:41;8.73;;;6.78;;
47413;SDS011;33163;0.000;0.000;2023-07-09T02:25:08;9.63;;;7.32;;
47413;SDS011;33163;0.000;0.000;2023-07-09T02:27:35;9.68;;;7.00;;
47413;SDS011;33163;0.000;0.000;2023-07-09T02:30:05;11.20;;;7.03;;
47413;SDS011;33163;0.000;0.000;2023-07-09T02:32:32;9.73;;;6.65;;
47413;SDS011;33163;0.000;0.000;2023-07-09T02:34:59;10.15;;;7.43;;
47413;SDS011;33163;0.000;0.000;2023-07-09T02:37:26;10.02;;;7.40;;
47413;SDS011;33163;0.000;0.000;2023-07-09T02:39:53;11.57;;;7.38;;
47413;SDS011;33163;0.000;0.000;2023-07-09T02:42:21;10.85;;;7.35;;
47413;SDS011;33163;0.000;0.000;2023-07-09T02:44:48;10.43;;;7.05;;
47413;SDS011;33163;0.000;0.000;2023-07-09T02:47:17;12.10;;;7.13;;
47413;SDS011;33163;0.000;0.000;2023-07-09T02:49:45;11.98;;;7.10;;
47413;SDS011;33163;0.000;0.000;2023-07-09T02:52:11;10.13;;;7.47;;
47413;SDS011;33163;0.000;0.000;2023-07-09T02:54:38;9.48;;;6.93;;
47413;SDS011;33163;0.000;0.000;2023-07-09T02:57:05;12.13;;;7.90;;
47413;SDS011;33163;0.000;0.000;2023-07-09T02:59:32;11.57;;;7.50;;
47413;SDS011;33163;0.000;0.000;2023-07-09T03:01:59;10.40;;;7.38;;
47413;SDS011;33163;0.000;0.000;2023-07-09T03:04:28;8.60;;;7.10;;
47413;SDS011;33163;0.000;0.000;2023-07-09T03:06:56;13.55;;;7.55;;
47413;SDS011;33163;0.000;0.000;2023-07-09T03:09:22;12.82;;;7.13;;
47413;SDS011;33163;0.000;0.000;2023-07-09T03:11:49;10.23;;;6.70;;
47413;SDS011;33163;0.000;0.000;2023-07-09T03:14:16;9.23;;;6.93;;
47413;SDS011;33163;0.000;0.000;2023-07-09T03:16:43;11.35;;;7.10;;
47413;SDS011;33163;0.000;0.000;2023-07-09T03:19:10;10.13;;;7.13;;
47413;SDS011;33163;0.000;0.000;2023-07-09T03:21:38;10.98;;;6.68;;
47413;SDS011;33163;0.000;0.000;2023-07-09T03:24:05;10.80;;;6.97;;
47413;SDS011;33163;0.000;0.000;2023-07-09T03:26:33;12.40;;;7.35;;
47413;SDS011;33163;0.000;0.000;2023-07-09T03:29:00;9.98;;;7.25;;
47413;SDS011;33163;0.000;0.000;2023-07-09T03:31:26;10.43;;;7.50;;
47413;SDS011;33163;0.000;0.000;2023-07-09T03:33:53;10.10;;;7.30;;
47413;SDS011;33163;0.000;0.000;2023-07-09T03:36:20;9.73;;;6.95;;
47413;SDS011;33163;0.000;0.000;2023-07-09T03:38:48;8.70;;;6.47;;
47413;SDS011;33163;0.000;0.000;2023-07-09T03:41:15;8.93;;;6.63;;
47413;SDS011;33163;0.000;0.000;2023-07-09T03:43:42;10.50;;;7.00;;
47413;SDS011;33163;0.000;0.000;2023-07-09T03:46:09;11.70;;;7.65;;
47413;SDS011;33163;0.000;0.000;2023-07-09T03:48:36;9.35;;;6.93;;
47413;SDS011;33163;0.000;0.000;2023-07-09T03:51:03;8.27;;;6.72;;
47413;SDS011;33163;0.000;0.000;2023-07-09T03:53:30;8.55;;;6.45;;
47413;SDS011;33163;0.000;0.000;2023-07-09T03:55:58;9.00;;;6.43;;
47413;SDS011;33163;0.000;0.000;2023-07-09T03:58:25;9.18;;;6.97;;
47413;SDS011;33163;0.000;0.000;2023-07-09T04:00:52;11.48;;;6.63;;
47413;SDS011;33163;0.000;0.000;2023-07-09T04:03:20;9.68;;;6.93;;
47413;SDS011;33163;0.000;0.000;2023-07-09T04:05:47;9.95;;;7.43;;
47413;SDS011;33163;0.000;0.000;2023-07-09T04:08:14;9.77;;;6.72;;
47413;SDS011;33163;0.000;0.000;2023-07-09T04:10:41;10.10;;;6.90;;
47413;SDS011;33163;0.000;0.000;2023-07-09T04:13:09;10.70;;;6.97;;
47413;SDS011;33163;0.000;0.000;2023-07-09T04:15:35;12.73;;;8.07;;
47413;SDS011;33163;0.000;0.000;2023-07-09T04:18:02;13.13;;;7.20;;
47413;SDS011;33163;0.000;0.000;2023-07-09T04:20:29;10.02;;;7.03;;
47413;SDS011;33163;0.000;0.000;2023-07-09T04:22:56;10.35;;;6.88;;
47413;SDS011;33163;0.000;0.000;2023-07-09T04:25:23;9.93;;;7.30;;
47413;SDS011;33163;0.000;0.000;2023-07-09T04:27:50;8.93;;;6.85;;
47413;SDS011;33163;0.000;0.000;2023-07-09T04:30:18;11.13;;;7.93;;
47413;SDS011;33163;0.000;0.000;2023-07-09T04:32:44;12.35;;;7.85;;
47413;SDS011;33163;0.000;0.000;2023-07-09T04:35:12;9.90;;;6.88;;
47413;SDS011;33163;0.000;0.000;2023-07-09T04:37:40;10.43;;;7.60;;
47413;SDS011;33163;0.000;0.000;2023-07-09T04:40:07;8.57;;;6.43;;
47413;SDS011;33163;0.000;0.000;2023-07-09T04:42:35;12.82;;;6.95;;
47413;SDS011;33163;0.000;0.000;2023-07-09T04:45:03;9.20;;;7.30;;
47413;SDS011;33163;0.000;0.000;2023-07-09T04:47:31;9.82;;;7.35;;
47413;SDS011;33163;0.000;0.000;2023-07-09T04:49:58;10.80;;;7.18;;
47413;SDS011;33163;0.000;0.000;2023-07-09T04:52:25;10.50;;;7.22;;
47413;SDS011;33163;0.000;0.000;2023-07-09T04:54:52;14.10;;;6.82;;
47413;SDS011;33163;0.000;0.000;2023-07-09T04:57:19;10.18;;;7.80;;
47413;SDS011;33163;0.000;0.000;2023-07-09T04:59:45;11.07;;;7.68;;
47413;SDS011;33163;0.000;0.000;2023-07-09T05:02:13;11.45;;;6.88;;
47413;SDS011;33163;0.000;0.000;2023-07-09T05:04:41;9.65;;;6.32;;
47413;SDS011;33163;0.000;0.000;2023-07-09T05:07:08;10.27;;;6.93;;
47413;SDS011;33163;0.000;0.000;2023-07-09T05:09:35;10.23;;;6.60;;
47413;SDS011;33163;0.000;0.000;2023-07-09T05:12:02;11.15;;;7.82;;
47413;SDS011;33163;0.000;0.000;2023-07-09T05:14:29;10.23;;;6.55;;
47413;SDS011;33163;0.000;0.000;2023-07-09T05:16:56;8.63;;;6.80;;
47413;SDS011;33163;0.000;0.000;2023-07-09T05:19:23;11.95;;;7.28;;
47413;SDS011;33163;0.000;0.000;2023-07-09T05:21:51;12.13;;;7.25;;
47413;SDS011;33163;0.000;0.000;2023-07-09T05:24:17;10.07;;;8.10;;
47413;SDS011;33163;0.000;0.000;2023-07-09T05:26:44;12.50;;;7.38;;
47413;SDS011;33163;0.000;0.000;2023-07-09T05:29:11;10.00;;;7.43;;
47413;SDS011;33163;0.000;0.000;2023-07-09T05:31:38;11.25;;;7.53;;
47413;SDS011;33163;0.000;0.000;2023-07-09T05:34:06;8.73;;;6.45;;
47413;SDS011;33163;0.000;0.000;2023-07-09T05:36:33;10.45;;;6.70;;
47413;SDS011;33163;0.000;0.000;2023-07-09T05:39:01;11.27;;;7.30;;
47413;SDS011;33163;0.000;0.000;2023-07-09T05:41:29;12.05;;;6.70;;
47413;SDS011;33163;0.000;0.000;2023-07-09T05:43:55;10.15;;;7.53;;
47413;SDS011;33163;0.000;0.000;2023-07-09T05:46:22;12.57;;;7.57;;
47413;SDS011;33163;0.000;0.000;2023-07-09T05:48:50;15.32;;;7.10;;
47413;SDS011;33163;0.000;0.000;2023-07-09T05:51:16;11.02;;;7.20;;
47413;SDS011;33163;0.000;0.000;2023-07-09T05:53:43;8.85;;;6.90;;
47413;SDS011;33163;0.000;0.000;2023-07-09T05:56:12;11.20;;;7.78;;
47413;SDS011;33163;0.000;0.000;2023-07-09T05:58:38;10.10;;;7.57;;
47413;SDS011;33163;0.000;0.000;2023-07-09T06:01:05;11.48;;;7.05;;
47413;SDS011;33163;0.000;0.000;2023-07-09T06:03:32;9.25;;;7.03;;
47413;SDS011;33163;0.000;0.000;2023-07-09T06:05:58;9.80;;;6.88;;
47413;SDS011;33163;0.000;0.000;2023-07-09T06:08:25;12.20;;;7.47;;
47413;SDS011;33163;0.000;0.000;2023-07-09T06:10:53;10.23;;;7.30;;
47413;SDS011;33163;0.000;0.000;2023-07-09T06:13:22;10.85;;;8.00;;
47413;SDS011;33163;0.000;0.000;2023-07-09T06:15:50;10.15;;;6.90;;
47413;SDS011;33163;0.000;0.000;2023-07-09T06:18:18;12.40;;;7.55;;
47413;SDS011;33163;0.000;0.000;2023-07-09T06:20:48;10.68;;;7.53;;
47413;SDS011;33163;0.000;0.000;2023-07-09T06:23:16;9.43;;;7.30;;
47413;SDS011;33163;0.000;0.000;2023-07-09T06:25:43;10.77;;;7.93;;
47413;SDS011;33163;0.000;0.000;2023-07-09T06:28:12;11.43;;;7.88;;
47413;SDS011;33163;0.000;0.000;2023-07-09T06:30:41;9.48;;;6.53;;
47413;SDS011;33163;0.000;0.000;2023-07-09T06:33:08;11.90;;;8.00;;
47413;SDS011;33163;0.000;0.000;2023-07-09T06:35:35;10.30;;;6.95;;
47413;SDS011;33163;0.000;0.000;2023-07-09T06:38:02;8.88;;;7.13;;
47413;SDS011;33163;0.000;0.000;2023-07-09T06:40:29;10.93;;;7.97;;
47413;SDS011;33163;0.000;0.000;2023-07-09T06:42:56;8.10;;;6.72;;
47413;SDS011;33163;0.000;0.000;2023-07-09T06:45:22;11.45;;;7.55;;
47413;SDS011;33163;0.000;0.000;2023-07-09T06:47:50;10.85;;;6.75;;
47413;SDS011;33163;0.000;0.000;2023-07-09T06:50:17;9.45;;;6.82;;
47413;SDS011;33163;0.000;0.000;2023-07-09T06:52:44;14.82;;;7.45;;
47413;SDS011;33163;0.000;0.000;2023-07-09T06:55:11;12.18;;;7.10;;
47413;SDS011;33163;0.000;0.000;2023-07-09T06:57:38;11.85;;;6.90;;
47413;SDS011;33163;0.000;0.000;2023-07-09T07:00:05;10.88;;;7.72;;
47413;SDS011;33163;0.000;0.000;2023-07-09T07:02:33;11.02;;;7.10;;
47413;SDS011;33163;0.000;0.000;2023-07-09T07:05:01;8.45;;;6.32;;
47413;SDS011;33163;0.000;0.000;2023-07-09T07:07:28;9.80;;;7.60;;
47413;SDS011;33163;0.000;0.000;2023-07-09T07:09:55;8.43;;;6.50;;
47413;SDS011;33163;0.000;0.000;2023-07-09T07:12:25;8.77;;;6.43;;
47413;SDS011;33163;0.000;0.000;2023-07-09T07:14:54;9.65;;;7.05;;
47413;SDS011;33163;0.000;0.000;2023-07-09T07:17:22;9.30;;;6.75;;
47413;SDS011;33163;0.000;0.000;2023-07-09T07:19:49;7.70;;;5.63;;
47413;SDS011;33163;0.000;0.000;2023-07-09T07:22:18;10.05;;;6.45;;
47413;SDS011;33163;0.000;0.000;2023-07-09T07:24:44;11.90;;;6.53;;
47413;SDS011;33163;0.000;0.000;2023-07-09T07:27:11;10.77;;;6.70;;
47413;SDS011;33163;0.000;0.000;2023-07-09T07:29:38;9.93;;;6.43;;
47413;SDS011;33163;0.000;0.000;2023-07-09T07:32:05;11.63;;;6.72;;
47413;SDS011;33163;0.000;0.000;2023-07-09T07:34:33;21.40;;;6.05;;
47413;SDS011;33163;0.000;0.000;2023-07-09T07:37:00;8.82;;;6.20;;
47413;SDS011;33163;0.000;0.000;2023-07-09T07:39:28;14.38;;;6.63;;
47413;SDS011;33163;0.000;0.000;2023-07-09T07:41:55;17.25;;;6.68;;
47413;SDS011;33163;0.000;0.000;2023-07-09T07:44:22;14.95;;;6.88;;
47413;SDS011;33163;0.000;0.000;2023-07-09T07:46:49;12.40;;;6.20;;
47413;SDS011;33163;0.000;0.000;2023-07-09T07:49:15;13.23;;;6.40;;
47413;SDS011;33163;0.000;0.000;2023-07-09T07:51:42;15.43;;;5.55;;
47413;SDS011;33163;0.000;0.000;2023-07-09T07:54:09;14.23;;;6.40;;
47413;SDS011;33163;0.000;0.000;2023-07-09T07:56:37;10.63;;;5.72;;
47413;SDS011;33163;0.000;0.000;2023-07-09T07:59:04;14.10;;;6.55;;
47413;SDS011;33163;0.000;0.000;2023-07-09T08:01:31;9.80;;;5.30;;
47413;SDS011;33163;0.000;0.000;2023-07-09T08:04:00;14.57;;;6.43;;
47413;SDS011;33163;0.000;0.000;2023-07-09T08:06:26;14.07;;;5.82;;
47413;SDS011;33163;0.000;0.000;2023-07-09T08:08:53;13.13;;;5.85;;
47413;SDS011;33163;0.000;0.000;2023-07-09T08:11:20;13.63;;;5.90;;
47413;SDS011;33163;0.000;0.000;2023-07-09T08:13:48;11.70;;;6.15;;
47413;SDS011;33163;0.000;0.000;2023-07-09T08:16:15;10.32;;;5.57;;
47413;SDS011;33163;0.000;0.000;2023-07-09T08:18:42;11.73;;;5.80;;
47413;SDS011;33163;0.000;0.000;2023-07-09T08:21:09;14.95;;;5.53;;
47413;SDS011;33163;0.000;0.000;2023-07-09T08:23:36;10.70;;;6.00;;
47413;SDS011;33163;0.000;0.000;2023-07-09T08:26:03;9.23;;;5.68;;
47413;SDS011;33163;0.000;0.000;2023-07-09T08:28:30;17.05;;;6.45;;
47413;SDS011;33163;0.000;0.000;2023-07-09T08:30:59;9.40;;;6.18;;
47413;SDS011;33163;0.000;0.000;2023-07-09T08:33:26;10.60;;;6.18;;
47413;SDS011;33163;0.000;0.000;2023-07-09T08:35:53;12.50;;;5.47;;
47413;SDS011;33163;0.000;0.000;2023-07-09T08:38:20;11.35;;;5.38;;
47413;SDS011;33163;0.000;0.000;2023-07-09T08:40:55;9.55;;;5.03;;
47413;SDS011;33163;0.000;0.000;2023-07-09T08:43:28;10.20;;;5.75;;
47413;SDS011;33163;0.000;0.000;2023-07-09T08:46:07;7.20;;;5.13;;
47413;SDS011;33163;0.000;0.000;2023-07-09T08:48:42;8.27;;;5.82;;
47413;SDS011;33163;0.000;0.000;2023-07-09T08:51:15;9.52;;;5.07;;
47413;SDS011;33163;0.000;0.000;2023-07-09T08:56:15;7.72;;;5.13;;
47413;SDS011;33163;0.000;0.000;2023-07-09T08:58:43;8.57;;;5.47;;
47413;SDS011;33163;0.000;0.000;2023-07-09T09:01:16;7.80;;;5.22;;
47413;SDS011;33163;0.000;0.000;2023-07-09T09:03:46;8.82;;;5.28;;
47413;SDS011;33163;0.000;0.000;2023-07-09T09:06:16;7.20;;;4.95;;
47413;SDS011;33163;0.000;0.000;2023-07-09T09:08:48;9.23;;;5.47;;
47413;SDS011;33163;0.000;0.000;2023-07-09T09:11:25;7.97;;;5.25;;
47413;SDS011;33163;0.000;0.000;2023-07-09T09:14:01;7.40;;;5.32;;
47413;SDS011;33163;0.000;0.000;2023-07-09T09:16:32;8.05;;;5.25;;
47413;SDS011;33163;0.000;0.000;2023-07-09T09:19:08;6.93;;;4.78;;
47413;SDS011;33163;0.000;0.000;2023-07-09T09:21:42;10.65;;;4.97;;
47413;SDS011;33163;0.000;0.000;2023-07-09T09:24:13;8.48;;;5.55;;
47413;SDS011;33163;0.000;0.000;2023-07-09T09:26:44;6.32;;;4.18;;
47413;SDS011;33163;0.000;0.000;2023-07-09T09:29:11;9.13;;;4.88;;
47413;SDS011;33163;0.000;0.000;2023-07-09T09:31:41;9.90;;;4.53;;
47413;SDS011;33163;0.000;0.000;2023-07-09T09:34:16;7.43;;;4.78;;
47413;SDS011;33163;0.000;0.000;2023-07-09T09:36:44;6.50;;;4.65;;
47413;SDS011;33163;0.000;0.000;2023-07-09T09:39:11;7.65;;;4.85;;
47413;SDS011;33163;0.000;0.000;2023-07-09T09:41:37;8.88;;;4.43;;
47413;SDS011;33163;0.000;0.000;2023-07-09T09:44:05;7.75;;;4.75;;
47413;SDS011;33163;0.000;0.000;2023-07-09T09:46:44;8.00;;;4.63;;
47413;SDS011;33163;0.000;0.000;2023-07-09T09:49:11;11.85;;;4.78;;
47413;SDS011;33163;0.000;0.000;2023-07-09T09:51:39;7.35;;;4.60;;
47413;SDS011;33163;0.000;0.000;2023-07-09T09:54:11;7.82;;;4.40;;
47413;SDS011;33163;0.000;0.000;2023-07-09T09:56:43;6.70;;;4.38;;
47413;SDS011;33163;0.000;0.000;2023-07-09T09:59:13;8.23;;;4.55;;
47413;SDS011;33163;0.000;0.000;2023-07-09T10:01:45;7.13;;;4.90;;
47413;SDS011;33163;0.000;0.000;2023-07-09T10:04:15;6.00;;;3.65;;
47413;SDS011;33163;0.000;0.000;2023-07-09T10:06:44;5.30;;;3.65;;
47413;SDS011;33163;0.000;0.000;2023-07-09T10:09:29;7.47;;;4.45;;
47413;SDS011;33163;0.000;0.000;2023-07-09T10:12:08;5.93;;;4.15;;
47413;SDS011;33163;0.000;0.000;2023-07-09T10:14:43;6.97;;;4.10;;
47413;SDS011;33163;0.000;0.000;2023-07-09T10:17:20;8.15;;;4.40;;
47413;SDS011;33163;0.000;0.000;2023-07-09T10:19:53;7.90;;;4.28;;
47413;SDS011;33163;0.000;0.000;2023-07-09T10:22:31;7.80;;;3.92;;
47413;SDS011;33163;0.000;0.000;2023-07-09T10:25:06;5.45;;;3.85;;
47413;SDS011;33163;0.000;0.000;2023-07-09T10:27:43;7.38;;;4.30;;
47413;SDS011;33163;0.000;0.000;2023-07-09T10:30:26;8.10;;;3.70;;
47413;SDS011;33163;0.000;0.000;2023-07-09T10:33:08;8.65;;;3.65;;
47413;SDS011;33163;0.000;0.000;2023-07-09T10:35:41;6.20;;;4.20;;
47413;SDS011;33163;0.000;0.000;2023-07-09T10:38:16;11.80;;;4.15;;
47413;SDS011;33163;0.000;0.000;2023-07-09T10:40:49;14.82;;;3.63;;
47413;SDS011;33163;0.000;0.000;2023-07-09T10:43:19;5.90;;;3.50;;
47413;SDS011;33163;0.000;0.000;2023-07-09T10:45:54;5.65;;;3.47;;
47413;SDS011;33163;0.000;0.000;2023-07-09T10:48:30;10.60;;;3.47;;
47413;SDS011;33163;0.000;0.000;2023-07-09T10:51:01;6.95;;;3.40;;
47413;SDS011;33163;0.000;0.000;2023-07-09T10:53:30;8.38;;;3.58;;
47413;SDS011;33163;0.000;0.000;2023-07-09T10:56:04;6.57;;;3.80;;
47413;SDS011;33163;0.000;0.000;2023-07-09T10:58:37;12.05;;;3.70;;
47413;SDS011;33163;0.000;0.000;2023-07-09T11:01:09;9.02;;;3.33;;
47413;SDS011;33163;0.000;0.000;2023-07-09T11:03:42;10.68;;;3.85;;
47413;SDS011;33163;0.000;0.000;2023-07-09T11:06:16;8.27;;;2.80;;
47413;SDS011;33163;0.000;0.000;2023-07-09T11:08:47;4.38;;;2.80;;
47413;SDS011;33163;0.000;0.000;2023-07-09T11:11:19;6.25;;;3.28;;
47413;SDS011;33163;0.000;0.000;2023-07-09T11:13:52;7.07;;;3.75;;
47413;SDS011;33163;0.000;0.000;2023-07-09T11:16:25;6.18;;;2.97;;
47413;SDS011;33163;0.000;0.000;2023-07-09T11:18:58;7.13;;;3.28;;
47413;SDS011;33163;0.000;0.000;2023-07-09T11:21:26;12.75;;;3.50;;
47413;SDS011;33163;0.000;0.000;2023-07-09T11:23:54;7.85;;;3.50;;
47413;SDS011;33163;0.000;0.000;2023-07-09T11:26:24;7.70;;;3.63;;
47413;SDS011;33163;0.000;0.000;2023-07-09T11:28:53;7.00;;;3.15;;
47413;SDS011;33163;0.000;0.000;2023-07-09T11:31:23;9.77;;;3.47;;
47413;SDS011;33163;0.000;0.000;2023-07-09T11:34:00;7.78;;;3.75;;
47413;SDS011;33163;0.000;0.000;2023-07-09T11:36:29;7.28;;;2.95;;
47413;SDS011;33163;0.000;0.000;2023-07-09T11:38:57;10.57;;;3.17;;
47413;SDS011;33163;0.000;0.000;2023-07-09T11:41:28;10.77;;;3.17;;
47413;SDS011;33163;0.000;0.000;2023-07-09T11:44:05;5.45;;;3.08;;
47413;SDS011;33163;0.000;0.000;2023-07-09T11:46:48;8.32;;;3.42;;
47413;SDS011;33163;0.000;0.000;2023-07-09T11:49:23;12.55;;;3.15;;
47413;SDS011;33163;0.000;0.000;2023-07-09T11:51:53;10.73;;;4.03;;
47413;SDS011;33163;0.000;0.000;2023-07-09T11:54:23;5.20;;;2.80;;
47413;SDS011;33163;0.000;0.000;2023-07-09T11:56:54;10.38;;;3.70;;
47413;SDS011;33163;0.000;0.000;2023-07-09T11:59:21;12.05;;;3.70;;
47413;SDS011;33163;0.000;0.000;2023-07-09T12:01:48;8.50;;;3.10;;
47413;SDS011;33163;0.000;0.000;2023-07-09T12:04:20;6.07;;;3.03;;
47413;SDS011;33163;0.000;0.000;2023-07-09T12:06:50;12.90;;;3.15;;
47413;SDS011;33163;0.000;0.000;2023-07-09T12:09:22;13.95;;;4.10;;
47413;SDS011;33163;0.000;0.000;2023-07-09T12:11:49;11.10;;;3.58;;
47413;SDS011;33163;0.000;0.000;2023-07-09T12:14:18;11.60;;;3.63;;
47413;SDS011;33163;0.000;0.000;2023-07-09T12:16:46;13.75;;;3.45;;
47413;SDS011;33163;0.000;0.000;2023-07-09T12:19:14;14.32;;;4.18;;
47413;SDS011;33163;0.000;0.000;2023-07-09T12:21:44;8.23;;;2.97;;
47413;SDS011;33163;0.000;0.000;2023-07-09T12:24:17;11.32;;;4.13;;
47413;SDS011;33163;0.000;0.000;2023-07-09T12:26:49;14.73;;;3.90;;
47413;SDS011;33163;0.000;0.000;2023-07-09T12:29:17;16.25;;;3.92;;
47413;SDS011;33163;0.000;0.000;2023-07-09T12:31:44;10.48;;;3.75;;
47413;SDS011;33163;0.000;0.000;2023-07-09T12:34:12;12.15;;;4.22;;
47413;SDS011;33163;0.000;0.000;2023-07-09T12:36:41;15.63;;;4.95;;
47413;SDS011;33163;0.000;0.000;2023-07-09T12:39:12;13.50;;;3.85;;
47413;SDS011;33163;0.000;0.000;2023-07-09T12:41:41;17.05;;;4.13;;
47413;SDS011;33163;0.000;0.000;2023-07-09T12:44:16;16.55;;;4.15;;
47413;SDS011;33163;0.000;0.000;2023-07-09T12:46:46;9.23;;;4.00;;
47413;SDS011;33163;0.000;0.000;2023-07-09T12:49:20;13.15;;;3.95;;
47413;SDS011;33163;0.000;0.000;2023-07-09T12:51:50;18.25;;;4.55;;
47413;SDS011;33163;0.000;0.000;2023-07-09T12:54:19;11.82;;;3.97;;
47413;SDS011;33163;0.000;0.000;2023-07-09T12:56:49;10.85;;;3.83;;
47413;SDS011;33163;0.000;0.000;2023-07-09T12:59:18;11.07;;;3.90;;
47413;SDS011;33163;0.000;0.000;2023-07-09T13:01:50;12.07;;;4.18;;
47413;SDS011;33163;0.000;0.000;2023-07-09T13:04:20;12.02;;;3.65;;
47413;SDS011;33163;0.000;0.000;2023-07-09T13:06:48;12.75;;;4.22;;
47413;SDS011;33163;0.000;0.000;2023-07-09T13:09:20;13.40;;;3.55;;
47413;SDS011;33163;0.000;0.000;2023-07-09T13:11:48;8.07;;;3.55;;
47413;SDS011;33163;0.000;0.000;2023-07-09T13:14:16;12.40;;;3.83;;
47413;SDS011;33163;0.000;0.000;2023-07-09T13:16:45;9.65;;;4.05;;
47413;SDS011;33163;0.000;0.000;2023-07-09T13:19:12;13.68;;;4.15;;
47413;SDS011;33163;0.000;0.000;2023-07-09T13:21:39;9.63;;;3.75;;
47413;SDS011;33163;0.000;0.000;2023-07-09T13:24:09;11.95;;;4.15;;
47413;SDS011;33163;0.000;0.000;2023-07-09T13:26:41;8.50;;;4.20;;
47413;SDS011;33163;0.000;0.000;2023-07-09T13:29:11;9.07;;;3.90;;
47413;SDS011;33163;0.000;0.000;2023-07-09T13:31:40;9.43;;;3.97;;
47413;SDS011;33163;0.000;0.000;2023-07-09T13:34:08;18.98;;;4.72;;
47413;SDS011;33163;0.000;0.000;2023-07-09T13:36:44;12.20;;;4.45;;
47413;SDS011;33163;0.000;0.000;2023-07-09T13:39:11;13.15;;;4.13;;
47413;SDS011;33163;0.000;0.000;2023-07-09T13:41:39;9.30;;;4.72;;
47413;SDS011;33163;0.000;0.000;2023-07-09T13:44:10;15.45;;;4.65;;
47413;SDS011;33163;0.000;0.000;2023-07-09T13:46:39;10.00;;;4.60;;
47413;SDS011;33163;0.000;0.000;2023-07-09T13:49:08;14.55;;;5.15;;
47413;SDS011;33163;0.000;0.000;2023-07-09T13:51:35;13.48;;;4.60;;
47413;SDS011;33163;0.000;0.000;2023-07-09T13:54:05;20.25;;;4.55;;
47413;SDS011;33163;0.000;0.000;2023-07-09T13:56:39;14.40;;;4.25;;
47413;SDS011;33163;0.000;0.000;2023-07-09T13:59:08;8.10;;;3.97;;
47413;SDS011;33163;0.000;0.000;2023-07-09T14:01:40;19.55;;;4.95;;
47413;SDS011;33163;0.000;0.000;2023-07-09T14:04:08;12.38;;;5.05;;
47413;SDS011;33163;0.000;0.000;2023-07-09T14:06:37;10.80;;;4.90;;
47413;SDS011;33163;0.000;0.000;2023-07-09T14:09:04;11.98;;;4.63;;
47413;SDS011;33163;0.000;0.000;2023-07-09T14:11:31;12.93;;;5.18;;
47413;SDS011;33163;0.000;0.000;2023-07-09T14:13:58;13.02;;;4.53;;
47413;SDS011;33163;0.000;0.000;2023-07-09T14:16:26;18.10;;;4.20;;
47413;SDS011;33163;0.000;0.000;2023-07-09T14:18:53;10.80;;;4.93;;
47413;SDS011;33163;0.000;0.000;2023-07-09T14:21:21;13.93;;;4.75;;
47413;SDS011;33163;0.000;0.000;2023-07-09T14:23:51;13.25;;;4.57;;
47413;SDS011;33163;0.000;0.000;2023-07-09T14:26:18;14.88;;;4.30;;
47413;SDS011;33163;0.000;0.000;2023-07-09T14:28:45;14.75;;;4.03;;
47413;SDS011;33163;0.000;0.000;2023-07-09T14:31:19;11.90;;;4.03;;
47413;SDS011;33163;0.000;0.000;2023-07-09T14:33:50;11.18;;;4.13;;
47413;SDS011;33163;0.000;0.000;2023-07-09T14:36:17;18.35;;;5.20;;
47413;SDS011;33163;0.000;0.000;2023-07-09T14:38:44;14.73;;;5.57;;
47413;SDS011;33163;0.000;0.000;2023-07-09T14:41:16;15.35;;;5.45;;
47413;SDS011;33163;0.000;0.000;2023-07-09T14:43:47;12.93;;;5.20;;
47413;SDS011;33163;0.000;0.000;2023-07-09T14:46:14;13.48;;;4.55;;
47413;SDS011;33163;0.000;0.000;2023-07-09T14:48:40;21.38;;;5.25;;
47413;SDS011;33163;0.000;0.000;2023-07-09T14:51:12;15.45;;;5.13;;
47413;SDS011;33163;0.000;0.000;2023-07-09T14:53:41;14.02;;;5.30;;
47413;SDS011;33163;0.000;0.000;2023-07-09T14:56:09;12.63;;;5.45;;
47413;SDS011;33163;0.000;0.000;2023-07-09T14:58:36;15.05;;;5.03;;
47413;SDS011;33163;0.000;0.000;2023-07-09T15:01:04;15.38;;;4.65;;
47413;SDS011;33163;0.000;0.000;2023-07-09T15:03:31;15.80;;;5.45;;
47413;SDS011;33163;0.000;0.000;2023-07-09T15:05:57;13.18;;;4.50;;